createdAt,value
2019-03-09T00:01:10.435Z,88.99
2019-03-09T00:03:39.170Z,88.85
2019-03-09T00:06:08.340Z,90.40
2019-03-09T00:08:37.632Z,90.68
2019-03-09T00:11:06.350Z,91.11
2019-03-09T00:13:35.561Z,90.35
2019-03-09T00:16:04.291Z,89.88
2019-03-09T00:18:33.020Z,89.48
2019-03-09T00:21:01.913Z,89.30
2019-03-09T00:23:35.014Z,89.58
2019-03-09T00:26:11.361Z,89.52
2019-03-09T00:28:44.463Z,89.93
2019-03-09T00:31:14.762Z,89.69
2019-03-09T00:33:43.565Z,89.08
2019-03-09T00:36:12.302Z,88.47
2019-03-09T00:38:41.073Z,87.25
2019-03-09T00:41:09.916Z,87.00
2019-03-09T00:43:38.645Z,87.20
2019-03-09T00:46:07.372Z,86.61
2019-03-09T00:48:36.173Z,86.60
2019-03-09T00:51:04.913Z,86.50
2019-03-09T00:53:33.634Z,86.92
2019-03-09T00:56:02.384Z,87.41
2019-03-09T00:58:31.107Z,87.68
2019-03-09T01:00:59.827Z,87.38
2019-03-09T01:03:28.616Z,87.41
2019-03-09T01:05:57.344Z,87.01
2019-03-09T01:08:26.071Z,86.56
2019-03-09T01:10:54.969Z,87.00
2019-03-09T01:13:23.694Z,86.96
2019-03-09T01:15:52.421Z,86.31
2019-03-09T01:18:21.299Z,86.66
2019-03-09T01:20:50.022Z,87.03
2019-03-09T01:23:18.741Z,87.74
2019-03-09T01:25:47.607Z,87.95
2019-03-09T01:28:16.328Z,87.64
2019-03-09T01:30:45.048Z,86.75
2019-03-09T01:33:14.200Z,86.53
2019-03-09T01:35:42.958Z,86.31
2019-03-09T01:38:11.644Z,86.23
2019-03-09T01:40:40.537Z,86.66
2019-03-09T01:43:09.260Z,87.37
2019-03-09T01:45:37.982Z,87.84
2019-03-09T01:48:06.782Z,87.23
2019-03-09T01:50:35.521Z,87.12
2019-03-09T01:53:04.349Z,87.27
2019-03-09T01:55:33.107Z,87.59
2019-03-09T01:58:01.848Z,87.77
2019-03-09T02:00:30.657Z,87.76
2019-03-09T02:02:59.426Z,87.55
2019-03-09T02:05:28.157Z,87.01
2019-03-09T02:07:56.873Z,87.87
2019-03-09T02:10:25.651Z,88.27
2019-03-09T02:12:54.408Z,88.78
2019-03-09T02:15:23.134Z,88.18
2019-03-09T02:17:51.935Z,88.25
2019-03-09T02:20:20.658Z,87.02
2019-03-09T02:22:49.396Z,84.59
2019-03-09T02:25:18.292Z,86.36
2019-03-09T02:27:47.016Z,87.46
2019-03-09T02:30:19.340Z,88.36
2019-03-09T02:32:48.120Z,88.57
2019-03-09T02:35:18.520Z,87.98
2019-03-09T02:37:47.251Z,87.33
2019-03-09T02:40:17.637Z,87.63
2019-03-09T02:42:46.356Z,87.66
2019-03-09T02:45:20.918Z,87.12
2019-03-09T02:47:50.089Z,87.18
2019-03-09T02:50:18.809Z,87.46
2019-03-09T02:52:47.650Z,87.69
2019-03-09T02:55:16.552Z,88.13
2019-03-09T02:57:45.339Z,88.61
2019-03-09T03:00:21.383Z,89.34
2019-03-09T03:02:51.779Z,89.48
2019-03-09T03:05:20.508Z,89.50
2019-03-09T03:07:49.473Z,88.94
2019-03-09T03:10:18.196Z,87.46
2019-03-09T03:12:46.930Z,87.57
2019-03-09T03:15:33.569Z,88.11
2019-03-09T03:18:02.411Z,88.92
2019-03-09T03:20:31.133Z,89.84
2019-03-09T03:22:59.929Z,89.45
2019-03-09T03:25:28.660Z,89.64
2019-03-09T03:27:57.403Z,86.37
2019-03-09T03:30:26.628Z,87.72
2019-03-09T03:32:56.965Z,88.43
2019-03-09T03:35:25.688Z,88.86
2019-03-09T03:37:54.574Z,88.23
2019-03-09T03:40:23.303Z,88.63
2019-03-09T03:42:52.029Z,90.07
2019-03-09T03:45:23.404Z,90.76
2019-03-09T03:47:52.134Z,91.36
2019-03-09T03:50:20.852Z,91.65
2019-03-09T03:52:49.721Z,92.10
2019-03-09T03:55:18.474Z,91.92
2019-03-09T03:57:47.282Z,89.90
2019-03-09T04:00:17.096Z,89.51
2019-03-09T04:02:45.822Z,89.63
2019-03-09T04:05:14.544Z,89.61
2019-03-09T04:07:44.084Z,90.06
2019-03-09T04:10:14.320Z,90.29
2019-03-09T04:12:44.499Z,90.49
2019-03-09T04:15:13.579Z,90.50
2019-03-09T04:17:42.439Z,89.22
2019-03-09T04:20:14.434Z,89.52
2019-03-09T04:22:43.312Z,89.10
2019-03-09T04:25:12.140Z,89.50
2019-03-09T04:27:40.871Z,89.48
2019-03-09T04:30:14.060Z,89.88
2019-03-09T04:32:42.788Z,89.94
2019-03-09T04:35:11.606Z,88.95
2019-03-09T04:37:40.526Z,87.77
2019-03-09T04:40:15.701Z,88.77
2019-03-09T04:42:44.478Z,89.33
2019-03-09T04:45:14.012Z,90.58
2019-03-09T04:47:42.737Z,91.79
2019-03-09T04:50:16.113Z,92.14
2019-03-09T04:52:44.855Z,92.20
2019-03-09T04:55:13.715Z,92.41
2019-03-09T04:57:42.588Z,92.36
2019-03-09T05:00:15.633Z,92.49
2019-03-09T05:02:44.363Z,92.19
2019-03-09T05:05:13.759Z,91.56
2019-03-09T05:07:48.394Z,91.80
2019-03-09T05:10:20.014Z,92.14
2019-03-09T05:12:54.617Z,92.71
2019-03-09T05:15:23.398Z,92.89
2019-03-09T05:17:52.125Z,92.88
2019-03-09T05:20:20.997Z,92.51
2019-03-09T05:22:49.790Z,92.37
2019-03-09T05:25:18.514Z,92.03
2019-03-09T05:27:47.243Z,91.50
2019-03-09T05:30:38.546Z,90.70
2019-03-09T05:33:07.274Z,90.07
2019-03-09T05:35:36.002Z,89.59
2019-03-09T05:38:04.876Z,88.53
2019-03-09T05:40:33.615Z,87.47
2019-03-09T05:43:02.337Z,87.14
2019-03-09T05:45:32.658Z,86.67
2019-03-09T05:48:01.790Z,86.30
2019-03-09T05:50:30.623Z,86.19
2019-03-09T05:53:17.138Z,83.70
2019-03-09T05:55:45.869Z,83.52
2019-03-09T05:58:14.699Z,83.39
2019-03-09T06:00:43.916Z,82.90
2019-03-09T06:03:12.646Z,81.71
2019-03-09T06:05:47.118Z,81.32
2019-03-09T06:08:15.901Z,80.99
2019-03-09T06:10:44.643Z,80.79
2019-03-09T06:13:13.371Z,81.92
2019-03-09T06:15:42.174Z,81.69
2019-03-09T06:18:10.909Z,81.85
2019-03-09T06:20:39.691Z,80.14
2019-03-09T06:23:08.644Z,81.53
2019-03-09T06:25:38.614Z,82.98
2019-03-09T06:28:07.495Z,82.49
2019-03-09T06:33:31.249Z,82.18
2019-03-09T06:36:11.840Z,78.39
2019-03-09T06:38:43.608Z,75.77
2019-03-09T06:41:24.077Z,78.33
2019-03-09T06:43:52.817Z,80.40
2019-03-09T06:46:21.549Z,80.31
2019-03-09T06:48:50.721Z,78.62
2019-03-09T06:51:19.449Z,74.96
2019-03-09T06:53:51.293Z,74.62
2019-03-09T06:56:20.130Z,71.96
2019-03-09T06:58:48.861Z,70.75
2019-03-09T07:01:20.145Z,71.21
2019-03-09T07:03:49.031Z,69.49
2019-03-09T07:06:17.858Z,67.16
2019-03-09T07:08:46.710Z,62.67
2019-03-09T07:11:15.681Z,61.05
2019-03-09T07:13:52.350Z,60.58
2019-03-09T07:16:15.894Z,60.40
2019-03-09T07:18:44.647Z,58.96
2019-03-09T07:21:13.375Z,58.03
2019-03-09T07:23:42.123Z,57.04
2019-03-09T07:26:11.230Z,56.84
2019-03-09T07:28:40.076Z,53.08
2019-03-09T07:31:08.792Z,52.00
2019-03-09T07:33:37.596Z,52.75
2019-03-09T07:36:06.325Z,54.86
2019-03-09T07:38:35.057Z,54.99
2019-03-09T07:41:03.916Z,55.33
2019-03-09T07:43:35.725Z,51.11
2019-03-09T07:46:04.495Z,51.38
2019-03-09T07:48:33.632Z,52.81
2019-03-09T07:51:02.374Z,50.99
2019-03-09T07:53:31.113Z,51.16
2019-03-09T07:56:00.341Z,52.00
2019-03-09T07:58:30.364Z,51.79
2019-03-09T08:00:59.108Z,51.37
2019-03-09T08:03:28.340Z,51.31
2019-03-09T08:05:57.074Z,50.99
2019-03-09T08:08:25.812Z,53.00
2019-03-09T08:10:55.277Z,50.93
2019-03-09T08:13:24.011Z,49.98
2019-03-09T08:15:52.753Z,51.14
2019-03-09T08:18:21.983Z,51.30
2019-03-09T08:20:50.736Z,50.38
2019-03-09T08:23:19.482Z,51.29
2019-03-09T08:25:48.269Z,50.53
2019-03-09T08:28:17.068Z,48.87
2019-03-09T08:30:45.831Z,47.44
2019-03-09T08:33:14.705Z,47.75
2019-03-09T08:35:46.197Z,49.49
2019-03-09T08:38:16.463Z,44.04
2019-03-09T08:40:45.253Z,43.45
2019-03-09T08:43:13.984Z,43.28
2019-03-09T08:45:42.712Z,47.45
2019-03-09T08:48:11.635Z,46.24
2019-03-09T08:50:40.376Z,43.05
2019-03-09T08:53:09.203Z,42.59
2019-03-09T08:55:38.052Z,43.31
2019-03-09T08:58:06.804Z,42.23
2019-03-09T09:00:36.240Z,41.62
2019-03-09T09:03:05.153Z,43.13
2019-03-09T09:05:33.890Z,43.09
2019-03-09T09:08:03.831Z,43.07
2019-03-09T09:10:33.141Z,41.69
2019-03-09T09:13:01.897Z,44.23
2019-03-09T09:15:30.630Z,39.98
2019-03-09T09:17:59.456Z,41.17
2019-03-09T09:20:28.608Z,37.89
2019-03-09T09:22:57.346Z,38.62
2019-03-09T09:25:26.239Z,39.03
2019-03-09T09:27:55.110Z,39.14
2019-03-09T09:30:26.028Z,38.05
2019-03-09T09:32:55.139Z,38.79
2019-03-09T09:35:23.867Z,38.92
2019-03-09T09:37:52.988Z,37.78
2019-03-09T09:40:26.336Z,35.77
2019-03-09T09:42:55.130Z,37.67
2019-03-09T09:45:23.866Z,38.31
2019-03-09T09:47:53.077Z,38.33
2019-03-09T09:50:21.918Z,35.21
2019-03-09T09:52:50.662Z,32.90
2019-03-09T09:55:20.727Z,32.31
2019-03-09T09:57:49.463Z,33.28
2019-03-09T10:00:20.663Z,34.54
2019-03-09T10:02:49.534Z,34.25
2019-03-09T10:05:18.256Z,33.05
2019-03-09T10:07:46.980Z,29.56
2019-03-09T10:10:20.749Z,26.49
2019-03-09T10:12:49.480Z,29.72
2019-03-09T10:15:20.648Z,28.07
2019-03-09T10:17:49.527Z,28.07
2019-03-09T10:20:18.258Z,29.05
2019-03-09T10:22:47.040Z,29.33
2019-03-09T10:25:15.800Z,28.03
2019-03-09T10:27:44.523Z,28.41
2019-03-09T10:30:21.672Z,29.31
2019-03-09T10:32:50.571Z,28.47
2019-03-09T10:35:19.720Z,28.70
2019-03-09T10:37:49.690Z,28.56
2019-03-09T10:40:18.916Z,28.08
2019-03-09T10:42:47.753Z,28.97
2019-03-09T10:45:18.145Z,31.80
2019-03-09T10:47:46.938Z,31.80
2019-03-09T10:50:19.534Z,31.29
2019-03-09T10:52:48.599Z,31.29
2019-03-09T10:55:22.900Z,27.40
2019-03-09T10:57:51.672Z,26.30
2019-03-09T11:00:34.887Z,26.30
2019-03-09T11:03:03.618Z,26.43
2019-03-09T11:05:32.341Z,28.54
2019-03-09T11:08:01.135Z,28.54
2019-03-09T11:10:29.873Z,26.97
2019-03-09T11:12:58.595Z,25.96
2019-03-09T11:15:27.487Z,27.01
2019-03-09T11:17:56.214Z,26.23
2019-03-09T11:20:25.071Z,25.39
2019-03-09T11:22:54.106Z,25.29
2019-03-09T11:25:22.829Z,25.79
2019-03-09T11:27:51.558Z,23.66
2019-03-09T11:30:31.679Z,25.95
2019-03-09T11:33:05.432Z,25.18
2019-03-09T11:35:33.084Z,23.71
2019-03-09T11:38:20.967Z,23.70
2019-03-09T11:40:56.905Z,24.86
2019-03-09T11:43:18.466Z,23.34
2019-03-09T11:45:47.196Z,23.58
2019-03-09T11:48:15.928Z,24.93
2019-03-09T11:50:44.797Z,24.91
2019-03-09T11:53:13.520Z,23.84
2019-03-09T11:55:42.250Z,23.94
2019-03-09T11:58:11.451Z,24.53
2019-03-09T12:00:41.765Z,25.46
2019-03-09T12:03:16.481Z,25.74
2019-03-09T12:05:45.222Z,25.21
2019-03-09T12:08:13.949Z,25.00
2019-03-09T12:10:42.700Z,24.61
2019-03-09T12:13:11.433Z,25.37
2019-03-09T12:15:40.159Z,25.38
2019-03-09T12:18:08.958Z,24.76
2019-03-09T12:20:37.678Z,25.25
2019-03-09T12:23:17.644Z,24.15
2019-03-09T12:25:46.364Z,24.16
2019-03-09T12:28:15.084Z,24.00
2019-03-09T12:30:44.216Z,25.41
2019-03-09T12:33:12.931Z,25.06
2019-03-09T12:35:43.965Z,24.78
2019-03-09T12:38:12.592Z,25.12
2019-03-09T12:40:41.311Z,25.57
2019-03-09T12:43:10.030Z,24.33
2019-03-09T12:45:38.919Z,25.18
2019-03-09T12:48:07.647Z,24.99
2019-03-09T12:50:36.365Z,23.52
2019-03-09T12:53:05.218Z,24.28
2019-03-09T12:55:34.040Z,24.93
2019-03-09T12:58:02.757Z,24.67
2019-03-09T13:00:31.558Z,24.32
2019-03-09T13:03:00.290Z,24.45
2019-03-09T13:05:29.010Z,24.45
2019-03-09T13:07:58.336Z,23.61
2019-03-09T13:10:27.054Z,23.67
2019-03-09T13:12:55.797Z,24.36
2019-03-09T13:15:24.679Z,24.36
2019-03-09T13:17:53.410Z,22.95
2019-03-09T13:20:22.129Z,23.78
2019-03-09T13:22:51.258Z,23.20
2019-03-09T13:25:19.982Z,23.00
2019-03-09T13:27:48.707Z,25.32
2019-03-09T13:30:22.488Z,23.70
2019-03-09T13:32:51.207Z,22.58
2019-03-09T13:35:19.923Z,24.28
2019-03-09T13:37:48.910Z,22.30
2019-03-09T13:40:17.727Z,25.66
2019-03-09T13:42:46.449Z,22.41
2019-03-09T13:45:18.859Z,24.99
2019-03-09T13:47:47.610Z,24.99
2019-03-09T13:50:16.358Z,23.06
2019-03-09T13:52:45.533Z,24.50
2019-03-09T13:55:31.734Z,24.53
2019-03-09T13:58:00.693Z,23.13
2019-03-09T14:00:39.728Z,24.29
2019-03-09T14:02:59.859Z,24.53
2019-03-09T14:05:28.869Z,24.31
2019-03-09T14:07:57.606Z,24.90
2019-03-09T14:10:26.319Z,23.83
2019-03-09T14:12:55.429Z,24.08
2019-03-09T14:15:24.156Z,25.23
2019-03-09T14:17:52.885Z,27.87
2019-03-09T14:20:21.694Z,30.18
2019-03-09T14:22:54.918Z,32.23
2019-03-09T14:25:23.641Z,32.13
2019-03-09T14:27:52.410Z,32.18
2019-03-09T14:30:21.125Z,31.12
2019-03-09T14:32:49.849Z,31.69
2019-03-09T14:35:19.117Z,28.76
2019-03-09T14:37:47.843Z,29.30
2019-03-09T14:40:17.244Z,30.26
2019-03-09T14:42:46.119Z,29.55
2019-03-09T14:45:17.434Z,30.12
2019-03-09T14:47:46.245Z,30.44
2019-03-09T14:50:15.532Z,30.95
2019-03-09T14:52:44.351Z,31.46
2019-03-09T14:55:14.081Z,31.71
2019-03-09T14:57:42.971Z,31.43
2019-03-09T15:00:20.647Z,32.70
2019-03-09T15:02:49.493Z,33.21
2019-03-09T15:05:18.313Z,34.55
2019-03-09T15:07:48.504Z,35.31
2019-03-09T15:10:17.719Z,39.47
2019-03-09T15:12:46.438Z,38.70
2019-03-09T15:15:19.067Z,37.14
2019-03-09T15:17:47.965Z,38.34
2019-03-09T15:20:17.698Z,35.87
2019-03-09T15:22:46.422Z,35.04
2019-03-09T15:25:17.263Z,35.25
2019-03-09T15:27:45.993Z,33.58
2019-03-09T15:30:19.789Z,32.56
2019-03-09T15:32:48.665Z,32.13
2019-03-09T15:35:18.197Z,32.12
2019-03-09T15:37:47.112Z,31.36
2019-03-09T15:40:17.917Z,31.42
2019-03-09T15:42:46.636Z,30.75
2019-03-09T15:45:16.756Z,31.49
2019-03-09T15:47:45.732Z,32.22
2019-03-09T15:50:16.356Z,32.28
2019-03-09T15:52:45.086Z,33.79
2019-03-09T15:55:14.547Z,33.51
2019-03-09T15:57:43.341Z,33.27
2019-03-09T16:00:17.632Z,34.13
2019-03-09T16:02:46.641Z,34.10
2019-03-09T16:05:15.771Z,35.36
2019-03-09T16:07:44.502Z,34.96
2019-03-09T16:10:18.371Z,35.62
2019-03-09T16:12:47.200Z,36.36
2019-03-09T16:15:16.820Z,37.11
2019-03-09T16:17:45.720Z,38.98
2019-03-09T16:20:19.680Z,39.39
2019-03-09T16:22:48.398Z,40.00
2019-03-09T16:25:17.310Z,40.42
2019-03-09T16:27:46.046Z,40.81
2019-03-09T16:30:17.294Z,41.51
2019-03-09T16:32:46.102Z,41.65
2019-03-09T16:35:14.848Z,41.54
2019-03-09T16:37:43.976Z,42.05
2019-03-09T16:40:22.542Z,42.81
2019-03-09T16:42:51.272Z,43.61
2019-03-09T16:45:20.205Z,44.72
2019-03-09T16:47:49.083Z,45.25
2019-03-09T16:50:18.610Z,47.04
2019-03-09T16:52:48.414Z,45.55
2019-03-09T16:55:17.284Z,45.84
2019-03-09T16:57:46.016Z,45.74
2019-03-09T17:00:25.042Z,46.69
2019-03-09T17:02:53.784Z,47.75
2019-03-09T17:05:22.518Z,48.92
2019-03-09T17:07:51.368Z,50.06
2019-03-09T17:10:20.098Z,50.96
2019-03-09T17:12:48.819Z,52.44
2019-03-09T17:15:22.534Z,52.94
2019-03-09T17:17:51.262Z,53.55
2019-03-09T17:20:20.284Z,54.57
2019-03-09T17:22:49.088Z,55.47
2019-03-09T17:25:17.809Z,56.42
2019-03-09T17:27:46.631Z,57.10
2019-03-09T17:30:20.740Z,57.44
2019-03-09T17:32:49.770Z,57.74
2019-03-09T17:35:19.920Z,58.33
2019-03-09T17:37:48.899Z,58.61
2019-03-09T17:40:18.370Z,58.55
2019-03-09T17:42:47.223Z,59.08
2019-03-09T17:45:21.129Z,59.14
2019-03-09T17:47:49.904Z,59.03
2019-03-09T17:50:18.668Z,58.59
2019-03-09T17:52:50.796Z,58.51
2019-03-09T17:55:19.566Z,57.96
2019-03-09T17:57:48.326Z,57.42
2019-03-09T18:00:22.547Z,57.91
2019-03-09T18:02:51.281Z,58.37
2019-03-09T18:05:20.190Z,58.78
2019-03-09T18:07:49.052Z,58.89
2019-03-09T18:10:23.501Z,58.94
2019-03-09T18:12:52.677Z,58.81
2019-03-09T18:15:21.397Z,58.54
2019-03-09T18:17:50.161Z,58.67
2019-03-09T18:20:18.946Z,58.34
2019-03-09T18:22:47.683Z,57.91
2019-03-09T18:25:16.413Z,58.12
2019-03-09T18:27:45.658Z,57.84
2019-03-09T18:30:17.439Z,57.51
2019-03-09T18:32:46.167Z,56.93
2019-03-09T18:35:15.020Z,56.76
2019-03-09T18:37:43.782Z,56.76
2019-03-09T18:40:16.647Z,57.11
2019-03-09T18:42:45.687Z,57.19
2019-03-09T18:45:16.820Z,57.60
2019-03-09T18:47:45.536Z,58.16
2019-03-09T18:50:14.641Z,58.35
2019-03-09T18:52:43.369Z,58.45
2019-03-09T18:55:12.098Z,58.41
2019-03-09T18:57:41.245Z,58.72
2019-03-09T19:00:20.679Z,59.12
2019-03-09T19:02:49.644Z,58.90
2019-03-09T19:05:18.381Z,58.44
2019-03-09T19:07:47.096Z,58.82
2019-03-09T19:10:18.124Z,58.86
2019-03-09T19:12:48.255Z,58.68
2019-03-09T19:15:18.286Z,58.04
2019-03-09T19:17:47.331Z,58.89
2019-03-09T19:20:17.374Z,59.16
2019-03-09T19:22:46.097Z,59.15
2019-03-09T19:25:25.654Z,59.33
2019-03-09T19:27:54.388Z,59.37
2019-03-09T19:30:23.718Z,59.01
2019-03-09T19:32:59.916Z,59.35
2019-03-09T19:35:23.066Z,59.54
2019-03-09T19:37:51.798Z,59.06
2019-03-09T19:40:22.090Z,58.99
2019-03-09T19:42:50.837Z,59.04
2019-03-09T19:45:20.664Z,59.16
2019-03-09T19:47:49.507Z,59.47
2019-03-09T19:50:28.129Z,60.25
2019-03-09T19:52:58.971Z,61.10
2019-03-09T19:55:27.478Z,61.44
2019-03-09T19:57:56.220Z,61.62
2019-03-09T20:00:25.016Z,61.51
2019-03-09T20:02:53.757Z,62.72
2019-03-09T20:05:22.549Z,63.56
2019-03-09T20:07:52.870Z,64.23
2019-03-09T20:10:22.706Z,64.28
2019-03-09T20:12:51.433Z,63.90
2019-03-09T20:15:21.081Z,64.35
2019-03-09T20:17:49.813Z,65.02
2019-03-09T20:20:19.147Z,66.62
2019-03-09T20:22:48.078Z,67.54
2019-03-09T20:25:16.808Z,67.74
2019-03-09T20:27:45.632Z,68.20
2019-03-09T20:30:19.330Z,68.09
2019-03-09T20:32:48.073Z,67.08
2019-03-09T20:35:16.800Z,66.63
2019-03-09T20:37:45.588Z,66.34
2019-03-09T20:40:16.020Z,66.69
2019-03-09T20:42:44.845Z,66.62
2019-03-09T20:45:19.067Z,67.20
2019-03-09T20:47:47.795Z,68.00
2019-03-09T20:50:20.822Z,68.29
2019-03-09T20:52:49.694Z,66.99
2019-03-09T20:55:18.423Z,66.81
2019-03-09T20:57:47.148Z,66.50
2019-03-09T21:00:20.568Z,66.61
2019-03-09T21:02:49.305Z,66.85
2019-03-09T21:05:18.051Z,67.43
2019-03-09T21:07:49.727Z,68.11
2019-03-09T21:10:19.554Z,68.42
2019-03-09T21:13:06.079Z,69.03
2019-03-09T21:15:34.816Z,68.90
2019-03-09T21:18:03.553Z,68.49
2019-03-09T21:20:32.483Z,69.24
2019-03-09T21:23:02.657Z,69.34
2019-03-09T21:25:31.389Z,69.72
2019-03-09T21:28:00.541Z,70.42
2019-03-09T21:30:29.282Z,69.91
2019-03-09T21:32:58.002Z,72.22
2019-03-09T21:35:26.870Z,72.22
2019-03-09T21:37:55.592Z,73.44
2019-03-09T21:40:24.323Z,73.97
2019-03-09T21:42:53.113Z,73.25
2019-03-09T21:45:21.837Z,72.05
2019-03-09T21:47:50.559Z,71.21
2019-03-09T21:50:19.448Z,70.25
2019-03-09T21:52:48.170Z,69.93
2019-03-09T21:55:17.421Z,69.31
2019-03-09T21:57:46.260Z,68.87
2019-03-09T22:00:21.833Z,68.60
2019-03-09T22:02:50.813Z,67.96
2019-03-09T22:05:20.056Z,67.65
2019-03-09T22:07:48.776Z,67.20
2019-03-09T22:10:20.240Z,66.92
2019-03-09T22:12:49.375Z,67.43
2019-03-09T22:15:18.801Z,67.32
2019-03-09T22:17:47.564Z,67.35
2019-03-09T22:20:16.779Z,69.30
2019-03-09T22:22:45.504Z,71.68
2019-03-09T22:25:15.632Z,74.68
2019-03-09T22:27:44.796Z,76.11
2019-03-09T22:30:20.910Z,77.04
2019-03-09T22:32:49.876Z,77.50
2019-03-09T22:35:18.600Z,78.15
2019-03-09T22:37:47.321Z,78.19
2019-03-09T22:40:17.466Z,78.78
2019-03-09T22:42:46.190Z,78.98
2019-03-09T22:45:15.811Z,79.95
2019-03-09T22:47:45.295Z,80.11
2019-03-09T22:50:24.652Z,80.68
2019-03-09T22:52:53.487Z,80.68
2019-03-09T22:55:22.219Z,80.00
2019-03-09T22:57:51.000Z,79.43
2019-03-09T23:00:26.988Z,78.00
2019-03-09T23:02:55.716Z,77.49
2019-03-09T23:05:24.428Z,76.04
2019-03-09T23:07:53.224Z,75.08
2019-03-09T23:10:26.581Z,73.70
2019-03-09T23:12:55.300Z,71.50
2019-03-09T23:15:24.259Z,69.71
2019-03-09T23:17:52.987Z,67.68
2019-03-09T23:20:21.701Z,67.08
2019-03-09T23:22:50.475Z,66.96
2019-03-09T23:25:19.199Z,66.49
2019-03-09T23:27:47.926Z,66.36
2019-03-09T23:30:23.249Z,65.98
2019-03-09T23:32:52.074Z,65.55
2019-03-09T23:35:21.752Z,65.83
2019-03-09T23:37:50.531Z,66.11
2019-03-09T23:40:20.650Z,66.01
2019-03-09T23:42:49.374Z,66.37
2019-03-09T23:45:19.944Z,66.87
2019-03-09T23:47:48.762Z,67.85
2019-03-09T23:50:18.184Z,68.94
2019-03-09T23:52:47.458Z,67.96
2019-03-09T23:55:22.284Z,68.15
2019-03-09T23:57:48.222Z,68.67
